Mount Plymouth, Florida
Current Conditions -  °F | °C
As of 10:53 AM on Friday 24 Oct 2014 (Local Time) from KSFB Reporting Station
Clear Clear  
Wind Chill: 76°   Ceiling: Unl
Heat Index: 76°   Visibility: 10mi
Dew Point: 58°   Wind: 10mph
Humidity: 54%   Direction: 40°NE
Pressure: 30"   Gusts: NA
Location:  28.8172°N, 81.4964°W
Report Text: KSFB 241453Z 04009KT 10SM CLR 24/14 A3000 RMK AO2 SLP159 T02440144 50008
Loading
Personal Weather Stations






























Interactive Weather Map
Tropical Storm Tracking
New forecast layout! Learn more

10-Day Weather Forecast

Advertisements
Track Severe Weather on mobile